メインページ
METAR-TAF:

METAR-TAF

空港 :

岩国飛行場

岩国, 日本

緯度: 34-08N, 経度: 132-14E, 海抜: 2m

現時点の気象観測

当レポートは1時間2分前の10:55(UTC)に作成
の風 3kt
気温 20°C
湿度 49%
気圧 1018 hPa
視程10km以上
高度4000ftの雲はほとんどない
高度8000ftの千切れ雲あり
高度22000ftの千切れ雲あり

METAR: RJOI 201055Z 19003KT 9999 FEW040 BKN080 BKN220 20/09 A3006 RMK SLP177 T02000089

時間: 20:57 (11:57 UTC)

予報

予報は20日の 09時(UTC)から 21日の 09時(UTC)まで有効
変向風 5kt
視程10km以上
高度10000ftの雲はほとんどない
高度15000ftの千切れ雲あり
高度22000ftの千切れ雲あり
20日の 09時(UTC)から 20日の 15時(UTC)まで一時的に
東/南東の風 8kt
20日の 1800時(UTC)から
北東の風 8kt
視程10km以上
高度3000ftの雲はほとんどない
高度15000ftの千切れ雲あり
21日の 0000時(UTC)から
の風 8kt
視程10km以上
高度3000ftの雲はほとんどない
高度15000ftの千切れ雲あり
21日の 0300時(UTC)から
南/南東の風 10kt
視程10km以上
高度3000ftの雲はほとんどない
高度15000ftの雲は散在している
高度28000ftの雲は散在している

TAF: RJOI 2009/2109 VRB05KT 9999 FEW100 BKN150 BKN220 QNH3000INS TEMPO 2009/2015 12008KT FM201800 05008KT 9999 FEW030 BKN150 QNH3005INS FM210000 09008KT 9999 FEW030 BKN150 QNH3008INS FM210300 16010KT 9999 FEW030 SCT150 SCT280 QNH3003INS T15/2021Z T23/2103Z

4,000以上の空港の気象観測と天気予報(METAR報とTAF報)

利用可能な観測所は地図上に黄色い丸と赤い丸で示す。

丸の上にカーソルを重ねると観測所名を参照できる。

次にクリックすると気象観測と天気予報を参照できる。

マップの切り替え:黒色「×」印の緑ボタンをクリックして拡大、「-」印の緑ボタンをクリックして縮小、緑色の三角印をクリックして隣りの地図に切り替え


METAR-TAF: